createdAt,value
2019-05-21T00:02:14.332Z,33.00
2019-05-21T00:04:43.466Z,34.77
2019-05-21T00:07:12.450Z,28.57
2019-05-21T00:09:41.489Z,27.60
2019-05-21T00:12:10.423Z,30.73
2019-05-21T00:14:39.402Z,30.33
2019-05-21T00:17:08.288Z,27.77
2019-05-21T00:19:37.409Z,26.90
2019-05-21T00:22:06.377Z,22.67
2019-05-21T00:24:35.530Z,26.70
2019-05-21T00:27:04.528Z,22.27
2019-05-21T00:30:09.548Z,25.40
2019-05-21T00:33:14.703Z,23.87
2019-05-21T00:36:21.153Z,24.00
2019-05-21T00:39:26.082Z,23.90
2019-05-21T00:42:00.083Z,19.83
2019-05-21T00:44:31.509Z,21.33
2019-05-21T00:47:00.567Z,20.57
2019-05-21T00:49:29.783Z,21.10
2019-05-21T00:52:08.124Z,20.30
2019-05-21T00:54:30.349Z,18.77
2019-05-21T00:56:59.502Z,16.73
2019-05-21T00:59:28.576Z,17.20
2019-05-21T01:01:57.600Z,18.07
2019-05-21T01:04:26.836Z,13.77
2019-05-21T01:06:55.816Z,11.93
2019-05-21T01:09:24.935Z,13.27
2019-05-21T01:11:54.108Z,12.47
2019-05-21T01:14:27.131Z,12.00
2019-05-21T01:16:56.235Z,10.33
2019-05-21T01:19:25.207Z,10.13
2019-05-21T01:21:54.142Z,8.37
2019-05-21T01:24:23.356Z,7.70
2019-05-21T01:26:52.522Z,5.90
2019-05-21T01:29:21.577Z,7.37
2019-05-21T01:31:50.588Z,7.43
2019-05-21T01:34:19.851Z,6.60
2019-05-21T01:36:49.425Z,6.60
2019-05-21T01:39:18.655Z,6.47
2019-05-21T01:41:47.683Z,6.27
2019-05-21T01:44:16.962Z,5.60
2019-05-21T01:46:46.278Z,5.87
2019-05-21T01:49:15.282Z,5.73
2019-05-21T01:51:44.122Z,6.43
2019-05-21T01:54:12.974Z,6.70
2019-05-21T01:56:42.042Z,5.43
2019-05-21T01:59:11.045Z,5.90
2019-05-21T02:01:40.059Z,5.63
2019-05-21T02:04:09.169Z,5.53
2019-05-21T02:06:38.303Z,6.43
2019-05-21T02:09:08.614Z,5.13
2019-05-21T02:11:37.414Z,4.87
2019-05-21T02:14:09.365Z,5.13
2019-05-21T02:16:38.301Z,6.37
2019-05-21T02:19:07.556Z,6.13
2019-05-21T02:21:36.501Z,6.00
2019-05-21T02:24:05.587Z,6.80
2019-05-21T02:26:34.558Z,6.67
2019-05-21T02:29:04.134Z,6.17
2019-05-21T02:31:33.271Z,6.80
2019-05-21T02:34:02.121Z,7.53
2019-05-21T02:36:31.342Z,7.47
2019-05-21T02:39:00.378Z,6.20
2019-05-21T02:41:29.431Z,7.77
2019-05-21T02:43:58.337Z,6.90
2019-05-21T02:46:27.399Z,7.07
2019-05-21T02:48:59.609Z,7.43
2019-05-21T02:51:28.642Z,7.53
2019-05-21T02:53:57.798Z,8.03
2019-05-21T02:56:26.913Z,7.00
2019-05-21T02:58:56.021Z,7.90
2019-05-21T03:01:31.714Z,6.27
2019-05-21T03:04:00.766Z,7.37
2019-05-21T03:06:29.896Z,7.03
2019-05-21T03:08:58.920Z,5.87
2019-05-21T03:11:28.053Z,6.37
2019-05-21T03:13:57.146Z,5.73
2019-05-21T03:16:26.211Z,5.07
2019-05-21T03:18:55.191Z,6.10
2019-05-21T03:21:24.183Z,5.77
2019-05-21T03:23:53.220Z,5.27
2019-05-21T03:26:22.315Z,4.80
2019-05-21T03:28:51.233Z,5.37
2019-05-21T03:31:20.196Z,6.30
2019-05-21T03:33:49.207Z,7.13
2019-05-21T03:36:32.443Z,6.43
2019-05-21T03:38:48.904Z,6.20
2019-05-21T03:41:17.730Z,5.93
2019-05-21T03:43:46.943Z,4.73
2019-05-21T03:46:16.031Z,4.47
2019-05-21T03:48:45.319Z,4.20
2019-05-21T03:51:14.602Z,4.80
2019-05-21T03:53:43.532Z,4.00
2019-05-21T03:56:12.611Z,2.83
2019-05-21T03:58:41.593Z,3.17
2019-05-21T04:01:10.475Z,2.37
2019-05-21T04:03:39.291Z,3.00
2019-05-21T04:06:08.295Z,2.07
2019-05-21T04:08:37.291Z,3.17
2019-05-21T04:11:06.238Z,3.47
2019-05-21T04:13:35.121Z,1.70
2019-05-21T04:16:10.255Z,2.67
2019-05-21T04:18:46.655Z,3.10
2019-05-21T04:21:15.633Z,2.90
2019-05-21T04:23:44.647Z,3.13
2019-05-21T04:26:13.562Z,3.70
2019-05-21T04:28:42.495Z,2.80
2019-05-21T04:31:11.824Z,2.50
2019-05-21T04:33:40.732Z,2.00
2019-05-21T04:36:10.542Z,1.33
2019-05-21T04:38:39.721Z,1.20
2019-05-21T04:41:08.722Z,1.27
2019-05-21T04:43:37.598Z,1.37
2019-05-21T04:46:06.652Z,1.50
2019-05-21T04:48:35.491Z,1.80
2019-05-21T04:51:04.488Z,1.60
2019-05-21T04:53:33.303Z,1.30
2019-05-21T04:56:02.261Z,1.10
2019-05-21T04:58:31.112Z,1.43
2019-05-21T05:01:00.090Z,1.20
2019-05-21T05:03:29.071Z,1.87
2019-05-21T05:05:57.898Z,1.47
2019-05-21T05:08:26.915Z,1.77
2019-05-21T05:10:55.816Z,1.33
2019-05-21T05:13:24.654Z,1.27
2019-05-21T05:15:53.722Z,1.97
2019-05-21T05:18:22.683Z,2.20
2019-05-21T05:20:51.582Z,1.70
2019-05-21T05:23:20.612Z,1.60
2019-05-21T05:25:49.578Z,1.33
2019-05-21T05:28:18.478Z,1.30
2019-05-21T05:30:47.551Z,1.30
2019-05-21T05:33:16.440Z,0.90
2019-05-21T05:35:45.306Z,1.50
2019-05-21T05:38:14.247Z,1.03
2019-05-21T05:40:43.210Z,1.20
2019-05-21T05:43:12.146Z,0.97
2019-05-21T05:45:41.098Z,1.63
2019-05-21T05:48:10.075Z,1.32
2019-05-21T05:50:41.030Z,1.27
2019-05-21T05:53:10.018Z,1.63
2019-05-21T05:55:39.035Z,1.37
2019-05-21T05:58:08.038Z,1.50
2019-05-21T06:00:37.409Z,1.63
2019-05-21T06:03:06.471Z,1.87
2019-05-21T06:05:35.490Z,1.20
2019-05-21T06:08:04.515Z,1.40
2019-05-21T06:10:33.470Z,1.47
2019-05-21T06:13:02.586Z,1.00
2019-05-21T06:15:33.725Z,1.20
2019-05-21T06:18:02.598Z,1.20
2019-05-21T06:20:32.242Z,1.50
2019-05-21T06:23:04.151Z,1.30
2019-05-21T06:25:41.672Z,1.60
2019-05-21T06:30:50.114Z,1.50
2019-05-21T06:33:19.003Z,1.40
2019-05-21T06:35:47.993Z,1.40
2019-05-21T06:38:18.357Z,1.13
2019-05-21T06:40:47.444Z,1.10
2019-05-21T06:43:16.485Z,1.20
2019-05-21T06:45:45.458Z,1.17
2019-05-21T06:48:14.292Z,0.90
2019-05-21T06:50:43.317Z,1.23
2019-05-21T06:53:12.382Z,1.20
2019-05-21T06:55:41.298Z,1.23
2019-05-21T06:58:10.265Z,1.10
2019-05-21T07:00:39.415Z,1.30
2019-05-21T07:03:08.403Z,0.90
2019-05-21T07:05:37.275Z,0.90
2019-05-21T07:08:06.250Z,1.10
2019-05-21T07:10:35.214Z,0.47
2019-05-21T07:13:04.275Z,0.97
2019-05-21T07:15:33.319Z,1.53
2019-05-21T07:18:02.209Z,0.97
2019-05-21T07:20:31.177Z,1.00
2019-05-21T07:23:00.170Z,0.80
2019-05-21T07:25:29.192Z,1.10
2019-05-21T07:27:58.106Z,0.90
2019-05-21T07:30:27.287Z,1.10
2019-05-21T07:32:56.335Z,1.00
2019-05-21T07:35:25.276Z,1.20
2019-05-21T07:37:54.189Z,1.00
2019-05-21T07:40:23.142Z,0.90
2019-05-21T07:42:51.983Z,2.10
2019-05-21T07:45:20.942Z,1.10
2019-05-21T07:47:49.823Z,1.00
2019-05-21T07:50:18.821Z,1.13
2019-05-21T07:52:47.680Z,0.80
2019-05-21T07:55:16.700Z,0.80
2019-05-21T07:57:45.714Z,0.80
2019-05-21T08:00:17.842Z,0.60
2019-05-21T08:02:46.681Z,0.50
2019-05-21T08:05:15.644Z,0.60
2019-05-21T08:07:44.829Z,0.60
2019-05-21T08:10:14.021Z,0.93
2019-05-21T08:12:43.041Z,0.93
2019-05-21T08:15:12.744Z,1.73
2019-05-21T08:17:41.761Z,1.00
2019-05-21T08:20:12.386Z,0.70
2019-05-21T08:22:41.300Z,0.80
2019-05-21T08:25:14.120Z,1.20
2019-05-21T08:27:41.019Z,1.00
2019-05-21T08:30:10.552Z,0.70
2019-05-21T08:32:39.388Z,1.30
2019-05-21T08:35:08.670Z,1.13
2019-05-21T08:37:37.643Z,1.00
2019-05-21T08:40:06.982Z,1.03
2019-05-21T08:42:36.091Z,1.83
2019-05-21T08:45:06.158Z,1.40
2019-05-21T08:47:35.277Z,1.10
2019-05-21T08:50:04.907Z,1.07
2019-05-21T08:52:33.884Z,1.00
2019-05-21T08:55:02.804Z,1.50
2019-05-21T08:57:32.137Z,1.23
2019-05-21T09:00:01.087Z,1.30
2019-05-21T09:02:30.122Z,1.90
2019-05-21T09:04:59.035Z,1.83
2019-05-21T09:07:28.529Z,1.80
2019-05-21T09:09:57.519Z,1.40
2019-05-21T09:12:26.431Z,1.50
2019-05-21T09:14:55.247Z,1.40
2019-05-21T09:17:24.266Z,2.00
2019-05-21T09:19:53.174Z,1.10
2019-05-21T09:22:24.484Z,1.40
2019-05-21T09:24:53.556Z,2.07
2019-05-21T09:27:22.452Z,1.00
2019-05-21T09:29:51.446Z,1.07
2019-05-21T09:32:20.362Z,1.70
2019-05-21T09:34:49.621Z,1.50
2019-05-21T09:37:20.295Z,1.00
2019-05-21T09:39:49.185Z,1.40
2019-05-21T09:42:18.170Z,0.90
2019-05-21T09:44:46.958Z,1.30
2019-05-21T09:47:15.962Z,1.17
2019-05-21T09:49:44.919Z,1.53
2019-05-21T09:52:13.875Z,2.10
2019-05-21T09:54:42.744Z,1.93
2019-05-21T09:57:13.595Z,1.50
2019-05-21T09:59:50.541Z,1.20
2019-05-21T10:02:24.962Z,2.07
2019-05-21T10:04:53.994Z,1.87
2019-05-21T10:07:38.070Z,1.93
2019-05-21T10:09:53.722Z,2.10
2019-05-21T10:12:22.649Z,2.27
2019-05-21T10:14:51.444Z,2.17
2019-05-21T10:17:20.280Z,1.40
2019-05-21T10:19:49.154Z,1.87
2019-05-21T10:22:18.103Z,1.63
2019-05-21T10:24:47.104Z,1.47
2019-05-21T10:27:16.182Z,1.07
2019-05-21T10:29:45.068Z,2.00
2019-05-21T10:32:13.996Z,1.30
2019-05-21T10:34:42.953Z,1.90
2019-05-21T10:37:11.944Z,1.53
2019-05-21T10:39:40.913Z,1.53
2019-05-21T10:42:09.940Z,1.33
2019-05-21T10:44:38.973Z,1.30
2019-05-21T10:47:08.109Z,1.57
2019-05-21T10:49:37.111Z,1.20
2019-05-21T10:52:06.139Z,1.30
2019-05-21T10:54:35.106Z,1.83
2019-05-21T10:57:04.199Z,1.10
2019-05-21T10:59:33.273Z,1.45
2019-05-21T11:02:12.470Z,0.90
2019-05-21T11:05:03.375Z,1.43
2019-05-21T11:07:32.271Z,1.47
2019-05-21T11:10:01.231Z,1.20
2019-05-21T11:12:30.324Z,1.10
2019-05-21T11:14:59.350Z,1.50
2019-05-21T11:17:28.332Z,1.20
2019-05-21T11:19:57.211Z,1.00
2019-05-21T11:22:26.160Z,1.20
2019-05-21T11:24:54.974Z,1.27
2019-05-21T11:27:24.143Z,2.40
2019-05-21T11:29:53.130Z,1.57
2019-05-21T11:32:21.970Z,2.00
2019-05-21T11:34:50.957Z,1.70
2019-05-21T11:37:19.861Z,1.60
2019-05-21T11:39:48.946Z,2.20
2019-05-21T11:42:18.980Z,2.03
2019-05-21T11:44:47.855Z,1.53
2019-05-21T11:47:16.845Z,2.87
2019-05-21T11:49:45.843Z,2.23
2019-05-21T11:52:14.737Z,3.57
2019-05-21T11:54:43.601Z,3.17
2019-05-21T11:57:12.482Z,2.97
2019-05-21T11:59:41.455Z,3.50
2019-05-21T12:02:10.967Z,3.47
2019-05-21T12:04:39.845Z,3.53
2019-05-21T12:07:08.901Z,3.60
2019-05-21T12:09:37.905Z,3.83
2019-05-21T12:12:06.869Z,3.30
2019-05-21T12:14:35.741Z,4.10
2019-05-21T12:17:04.693Z,4.50
2019-05-21T12:19:33.647Z,4.10
2019-05-21T12:22:02.628Z,3.83
2019-05-21T12:24:31.614Z,3.80
2019-05-21T12:27:00.589Z,5.03
2019-05-21T12:29:29.656Z,4.17
2019-05-21T12:31:58.571Z,3.77
2019-05-21T12:34:27.543Z,4.70
2019-05-21T12:36:56.385Z,3.83
2019-05-21T12:39:25.218Z,4.43
2019-05-21T12:41:54.180Z,4.77
2019-05-21T12:44:23.222Z,4.43
2019-05-21T12:46:52.189Z,3.83
2019-05-21T12:49:21.265Z,4.50
2019-05-21T12:51:50.224Z,4.70
2019-05-21T12:54:19.147Z,5.75
2019-05-21T12:56:48.003Z,4.70
2019-05-21T12:59:16.843Z,4.97
2019-05-21T13:01:46.166Z,4.80
2019-05-21T13:04:14.963Z,4.77
2019-05-21T13:06:43.843Z,4.30
2019-05-21T13:09:12.862Z,4.87
2019-05-21T13:11:41.767Z,5.03
2019-05-21T13:14:14.881Z,5.10
2019-05-21T13:16:41.532Z,5.67
2019-05-21T13:19:11.392Z,4.80
2019-05-21T13:21:40.490Z,6.10
2019-05-21T13:24:09.472Z,5.60
2019-05-21T13:26:38.467Z,6.33
2019-05-21T13:29:07.473Z,6.37
2019-05-21T13:31:36.359Z,5.90
2019-05-21T13:34:05.395Z,6.07
2019-05-21T13:36:34.405Z,6.00
2019-05-21T13:39:05.272Z,6.57
2019-05-21T13:41:34.273Z,5.93
2019-05-21T13:44:03.202Z,6.50
2019-05-21T13:46:35.412Z,6.70
2019-05-21T13:49:02.905Z,5.93
2019-05-21T13:51:31.910Z,6.87
2019-05-21T13:54:00.938Z,6.97
2019-05-21T13:56:29.929Z,7.40
2019-05-21T13:58:58.871Z,6.87
2019-05-21T14:01:40.204Z,7.53
2019-05-21T14:03:58.710Z,7.70
2019-05-21T14:06:27.655Z,5.97
2019-05-21T14:08:56.635Z,7.07
2019-05-21T14:11:25.740Z,6.27
2019-05-21T14:13:54.700Z,5.93
2019-05-21T14:16:23.928Z,6.20
2019-05-21T14:18:53.078Z,6.53
2019-05-21T14:21:22.055Z,7.00
2019-05-21T14:23:50.884Z,6.87
2019-05-21T14:26:19.918Z,6.00
2019-05-21T14:28:48.943Z,6.80
2019-05-21T14:31:19.758Z,5.40
2019-05-21T14:33:48.898Z,7.13
2019-05-21T14:36:17.948Z,6.67
2019-05-21T14:38:46.863Z,6.80
2019-05-21T14:41:16.012Z,6.43
2019-05-21T14:43:44.978Z,6.87
2019-05-21T14:46:13.978Z,7.10
2019-05-21T14:48:42.962Z,6.20
2019-05-21T14:51:13.601Z,7.43
2019-05-21T14:53:42.648Z,5.10
2019-05-21T14:56:11.628Z,6.13
2019-05-21T14:58:40.554Z,5.93
2019-05-21T15:01:09.418Z,5.73
2019-05-21T15:03:38.482Z,7.00
2019-05-21T15:06:07.428Z,7.30
2019-05-21T15:08:37.633Z,7.33
2019-05-21T15:11:06.682Z,7.33
2019-05-21T15:13:35.559Z,6.83
2019-05-21T15:16:04.510Z,6.67
2019-05-21T15:18:33.457Z,6.37
2019-05-21T15:21:10.404Z,6.77
2019-05-21T15:23:40.889Z,5.67
2019-05-21T15:26:10.565Z,6.73
2019-05-21T15:28:39.438Z,6.33
2019-05-21T15:31:08.370Z,7.23
2019-05-21T15:33:37.387Z,7.27
2019-05-21T15:36:06.699Z,7.00
2019-05-21T15:38:49.470Z,7.13
2019-05-21T15:41:11.765Z,7.30
2019-05-21T15:43:36.969Z,8.03
2019-05-21T15:46:06.243Z,8.13
2019-05-21T15:48:35.237Z,7.90
2019-05-21T15:51:04.139Z,7.93
2019-05-21T15:53:33.063Z,9.43
2019-05-21T15:56:01.930Z,8.47
2019-05-21T15:58:30.867Z,8.37
2019-05-21T16:00:59.745Z,7.30
2019-05-21T16:03:28.733Z,7.90
2019-05-21T16:05:57.671Z,8.87
2019-05-21T16:08:26.669Z,6.73
2019-05-21T16:10:55.649Z,8.03
2019-05-21T16:13:24.625Z,8.57
2019-05-21T16:15:53.937Z,8.37
2019-05-21T16:18:23.002Z,8.70
2019-05-21T16:20:52.028Z,8.03
2019-05-21T16:23:20.852Z,7.60
2019-05-21T16:25:49.849Z,7.57
2019-05-21T16:28:18.785Z,8.17
2019-05-21T16:30:47.786Z,8.47
2019-05-21T16:33:16.776Z,9.90
2019-05-21T16:35:45.690Z,9.87
2019-05-21T16:38:14.670Z,10.07
2019-05-21T16:40:44.127Z,10.63
2019-05-21T16:43:13.129Z,9.57
2019-05-21T16:45:42.136Z,10.47
2019-05-21T16:48:11.412Z,10.57
2019-05-21T16:50:40.481Z,11.40
2019-05-21T16:53:09.484Z,11.00
2019-05-21T16:55:38.438Z,12.03
2019-05-21T16:58:07.440Z,10.77
2019-05-21T17:00:36.412Z,11.90
2019-05-21T17:03:05.617Z,11.47
2019-05-21T17:05:34.759Z,12.53
2019-05-21T17:08:03.884Z,12.37
2019-05-21T17:10:32.900Z,13.40
2019-05-21T17:13:01.853Z,12.47
2019-05-21T17:15:30.763Z,13.77
2019-05-21T17:17:59.565Z,11.43
2019-05-21T17:20:28.613Z,12.60
2019-05-21T17:22:57.559Z,13.33
2019-05-21T17:25:26.544Z,13.70
2019-05-21T17:27:55.399Z,12.90
2019-05-21T17:30:24.418Z,12.60
2019-05-21T17:32:53.331Z,14.30
2019-05-21T17:35:22.364Z,12.57
2019-05-21T17:37:51.413Z,13.40
2019-05-21T17:40:20.456Z,13.53
2019-05-21T17:42:49.623Z,12.73
2019-05-21T17:45:18.672Z,11.73
2019-05-21T17:47:47.677Z,11.87
2019-05-21T17:50:18.243Z,12.37
2019-05-21T17:52:47.836Z,11.77
2019-05-21T17:55:17.050Z,11.30
2019-05-21T17:57:46.411Z,11.53
2019-05-21T18:00:19.370Z,10.13
2019-05-21T18:02:48.289Z,11.83
2019-05-21T18:05:18.796Z,11.73
2019-05-21T18:07:47.663Z,10.90
2019-05-21T18:10:17.782Z,12.20
2019-05-21T18:12:47.233Z,13.20
2019-05-21T18:15:16.610Z,14.87
2019-05-21T18:17:46.106Z,12.33
2019-05-21T18:20:18.092Z,12.70
2019-05-21T18:22:48.516Z,13.67
2019-05-21T18:25:17.918Z,12.70
2019-05-21T18:27:48.718Z,12.73
2019-05-21T18:30:18.225Z,14.50
2019-05-21T18:32:47.457Z,13.40
2019-05-21T18:35:16.775Z,13.23
2019-05-21T18:37:45.610Z,12.57
2019-05-21T18:40:15.470Z,13.63
2019-05-21T18:42:44.422Z,14.28
2019-05-21T18:45:13.757Z,14.00
2019-05-21T18:47:42.761Z,13.33
2019-05-21T18:50:12.142Z,15.70
2019-05-21T18:52:41.038Z,13.93
2019-05-21T18:55:12.077Z,14.70
2019-05-21T18:57:41.204Z,14.53
2019-05-21T19:00:11.673Z,13.80
2019-05-21T19:02:41.465Z,12.83
2019-05-21T19:05:10.995Z,13.33
2019-05-21T19:07:40.517Z,12.97
2019-05-21T19:10:10.571Z,12.57
2019-05-21T19:12:39.898Z,13.43
2019-05-21T19:15:09.972Z,13.90
2019-05-21T19:17:38.975Z,13.10
2019-05-21T19:20:08.346Z,12.60
2019-05-21T19:22:38.992Z,13.00
2019-05-21T19:25:08.294Z,12.87
2019-05-21T19:27:37.719Z,13.10
2019-05-21T19:30:07.572Z,12.53
2019-05-21T19:32:36.608Z,14.13
2019-05-21T19:35:06.286Z,14.13
2019-05-21T19:37:35.300Z,13.13
2019-05-21T19:40:04.900Z,14.47
2019-05-21T19:42:33.934Z,13.57
2019-05-21T19:45:03.782Z,13.40
2019-05-21T19:47:32.775Z,13.17
2019-05-21T19:50:01.797Z,13.00
2019-05-21T19:52:30.796Z,12.90
2019-05-21T19:54:59.614Z,13.03
2019-05-21T19:57:30.324Z,12.30
2019-05-21T19:59:59.125Z,12.77
2019-05-21T20:02:29.999Z,12.63
2019-05-21T20:04:59.987Z,12.67
2019-05-21T20:07:29.565Z,12.43
2019-05-21T20:09:59.231Z,12.43
2019-05-21T20:12:28.501Z,13.57
2019-05-21T20:14:57.805Z,13.70
2019-05-21T20:17:28.366Z,15.10
2019-05-21T20:19:58.051Z,13.77
2019-05-21T20:22:27.360Z,13.60
2019-05-21T20:24:56.882Z,12.50
2019-05-21T20:27:26.979Z,12.07
2019-05-21T20:30:11.338Z,13.80
2019-05-21T20:32:27.149Z,14.43
2019-05-21T20:34:56.212Z,15.93
2019-05-21T20:37:26.873Z,14.83
2019-05-21T20:39:57.006Z,14.37
2019-05-21T20:42:28.896Z,13.97
2019-05-21T20:44:58.102Z,14.57
2019-05-21T20:47:27.228Z,15.67
2019-05-21T20:49:57.314Z,15.33
2019-05-21T20:52:26.710Z,16.43
2019-05-21T20:54:57.102Z,17.17
2019-05-21T20:57:27.178Z,15.37
2019-05-21T20:59:56.672Z,16.40
2019-05-21T21:02:26.354Z,16.53
2019-05-21T21:04:55.861Z,18.07
2019-05-21T21:07:25.024Z,17.00
2019-05-21T21:09:54.055Z,17.23
2019-05-21T21:12:23.954Z,17.17
2019-05-21T21:14:53.406Z,17.83
2019-05-21T21:17:23.291Z,17.60
2019-05-21T21:19:52.236Z,18.20
2019-05-21T21:22:21.192Z,18.50
2019-05-21T21:24:50.369Z,19.07
2019-05-21T21:27:20.080Z,19.00
2019-05-21T21:29:49.441Z,17.37
2019-05-21T21:32:19.180Z,17.50
2019-05-21T21:34:48.815Z,18.07
2019-05-21T21:37:18.340Z,17.73
2019-05-21T21:39:47.423Z,17.30
2019-05-21T21:42:16.678Z,16.77
2019-05-21T21:44:46.290Z,18.30
2019-05-21T21:47:15.754Z,17.13
2019-05-21T21:49:44.921Z,17.83
2019-05-21T21:52:15.014Z,16.73
2019-05-21T21:54:45.332Z,18.27
2019-05-21T21:57:14.615Z,16.97
2019-05-21T21:59:43.741Z,17.63
2019-05-21T22:02:29.026Z,17.60
2019-05-21T22:04:59.611Z,17.20
2019-05-21T22:07:29.630Z,17.43
2019-05-21T22:09:58.982Z,16.77
2019-05-21T22:12:28.013Z,17.83
2019-05-21T22:15:01.825Z,19.40
2019-05-21T22:17:31.008Z,18.13
2019-05-21T22:20:00.103Z,17.27
2019-05-21T22:22:29.765Z,18.80
2019-05-21T22:24:58.911Z,19.17
2019-05-21T22:27:27.793Z,18.47
2019-05-21T22:29:56.778Z,19.23
2019-05-21T22:32:26.712Z,21.53
2019-05-21T22:34:55.688Z,21.50
2019-05-21T22:37:26.440Z,20.97
2019-05-21T22:39:55.387Z,22.80
2019-05-21T22:42:25.247Z,22.40
2019-05-21T22:45:07.541Z,22.73
2019-05-21T22:47:25.706Z,22.03
2019-05-21T22:49:54.836Z,22.03
2019-05-21T22:52:23.913Z,23.73
2019-05-21T22:54:52.896Z,21.87
2019-05-21T22:57:21.842Z,23.40
2019-05-21T22:59:50.809Z,22.60
2019-05-21T23:02:24.299Z,22.73
2019-05-21T23:04:53.912Z,22.40
2019-05-21T23:07:23.142Z,23.13
2019-05-21T23:09:52.975Z,22.87
2019-05-21T23:12:21.954Z,22.93
2019-05-21T23:14:51.840Z,20.37
2019-05-21T23:17:21.179Z,21.47
2019-05-21T23:19:50.701Z,21.90
2019-05-21T23:22:22.611Z,22.53
2019-05-21T23:24:51.521Z,21.27
2019-05-21T23:27:21.637Z,20.53
2019-05-21T23:29:50.851Z,19.67
2019-05-21T23:32:20.739Z,19.53
2019-05-21T23:34:53.477Z,19.63
2019-05-21T23:37:25.621Z,19.20
2019-05-21T23:39:55.679Z,18.10
2019-05-21T23:42:29.369Z,18.50
2019-05-21T23:44:55.880Z,17.10
2019-05-21T23:47:25.090Z,18.37
2019-05-21T23:49:54.424Z,16.20
2019-05-21T23:52:23.926Z,16.90
2019-05-21T23:54:52.804Z,16.20
2019-05-21T23:57:27.746Z,17.10
2019-05-21T23:59:57.322Z,16.20
